sensor_id;sensor_type;location;lat;lon;timestamp;temperature;humidity
27162;DHT22;54464;50.558;9.704;2022-12-16T00:01:52;-7.20;99.90
27162;DHT22;54464;50.558;9.704;2022-12-16T00:04:18;-7.20;99.90
27162;DHT22;54464;50.558;9.704;2022-12-16T00:06:44;-7.20;99.90
27162;DHT22;54464;50.558;9.704;2022-12-16T00:09:10;-7.20;99.90
27162;DHT22;54464;50.558;9.704;2022-12-16T00:11:35;-7.20;99.90
27162;DHT22;54464;50.558;9.704;2022-12-16T00:14:01;-7.20;99.90
27162;DHT22;54464;50.558;9.704;2022-12-16T00:16:26;-7.20;99.90
27162;DHT22;54464;50.558;9.704;2022-12-16T00:18:53;-7.20;99.90
27162;DHT22;54464;50.558;9.704;2022-12-16T00:21:19;-7.10;99.90
27162;DHT22;54464;50.558;9.704;2022-12-16T00:23:45;-7.10;99.90
27162;DHT22;54464;50.558;9.704;2022-12-16T00:26:12;-7.10;99.90
27162;DHT22;54464;50.558;9.704;2022-12-16T00:28:38;-7.10;99.90
27162;DHT22;54464;50.558;9.704;2022-12-16T00:31:05;-7.00;99.90
27162;DHT22;54464;50.558;9.704;2022-12-16T00:33:30;-7.00;99.90
27162;DHT22;54464;50.558;9.704;2022-12-16T00:35:57;-7.00;99.90
27162;DHT22;54464;50.558;9.704;2022-12-16T00:38:32;-7.00;99.90
27162;DHT22;54464;50.558;9.704;2022-12-16T00:40:58;-7.00;99.90
27162;DHT22;54464;50.558;9.704;2022-12-16T00:43:27;-7.00;99.90
27162;DHT22;54464;50.558;9.704;2022-12-16T00:45:52;-7.00;99.90
27162;DHT22;54464;50.558;9.704;2022-12-16T00:48:18;-6.90;99.90
27162;DHT22;54464;50.558;9.704;2022-12-16T00:50:51;-7.00;99.90
27162;DHT22;54464;50.558;9.704;2022-12-16T00:53:19;-7.00;99.90
27162;DHT22;54464;50.558;9.704;2022-12-16T00:55:44;-7.00;99.90
27162;DHT22;54464;50.558;9.704;2022-12-16T00:58:11;-7.00;99.90
27162;DHT22;54464;50.558;9.704;2022-12-16T01:00:36;-7.00;99.90
27162;DHT22;54464;50.558;9.704;2022-12-16T01:03:03;-6.90;99.90
27162;DHT22;54464;50.558;9.704;2022-12-16T01:05:29;-6.90;99.90
27162;DHT22;54464;50.558;9.704;2022-12-16T01:07:55;-6.90;99.90
27162;DHT22;54464;50.558;9.704;2022-12-16T01:10:22;-6.90;99.90
27162;DHT22;54464;50.558;9.704;2022-12-16T01:12:49;-6.90;99.90
27162;DHT22;54464;50.558;9.704;2022-12-16T01:15:15;-6.90;99.90
27162;DHT22;54464;50.558;9.704;2022-12-16T01:17:41;-6.90;99.90
27162;DHT22;54464;50.558;9.704;2022-12-16T01:20:08;-6.90;99.90
27162;DHT22;54464;50.558;9.704;2022-12-16T01:22:35;-7.00;99.90
27162;DHT22;54464;50.558;9.704;2022-12-16T01:25:01;-7.00;99.90
27162;DHT22;54464;50.558;9.704;2022-12-16T01:27:28;-7.00;99.90
27162;DHT22;54464;50.558;9.704;2022-12-16T01:29:54;-6.90;99.90
27162;DHT22;54464;50.558;9.704;2022-12-16T01:32:19;-6.90;99.90
27162;DHT22;54464;50.558;9.704;2022-12-16T01:34:52;-6.90;99.90
27162;DHT22;54464;50.558;9.704;2022-12-16T01:37:19;-6.90;99.90
27162;DHT22;54464;50.558;9.704;2022-12-16T01:39:45;-6.90;99.90
27162;DHT22;54464;50.558;9.704;2022-12-16T01:42:16;-6.90;99.90
27162;DHT22;54464;50.558;9.704;2022-12-16T01:44:44;-6.90;99.90
27162;DHT22;54464;50.558;9.704;2022-12-16T01:47:16;-6.90;99.90
27162;DHT22;54464;50.558;9.704;2022-12-16T01:49:49;-6.90;99.90
27162;DHT22;54464;50.558;9.704;2022-12-16T01:52:28;-6.90;99.90
27162;DHT22;54464;50.558;9.704;2022-12-16T01:55:02;-7.00;99.90
27162;DHT22;54464;50.558;9.704;2022-12-16T01:57:39;-7.00;99.90
27162;DHT22;54464;50.558;9.704;2022-12-16T02:00:07;-7.00;99.90
27162;DHT22;54464;50.558;9.704;2022-12-16T02:02:35;-7.10;99.90
27162;DHT22;54464;50.558;9.704;2022-12-16T02:05:01;-7.10;99.90
27162;DHT22;54464;50.558;9.704;2022-12-16T02:22:01;-7.40;99.90
27162;DHT22;54464;50.558;9.704;2022-12-16T02:33:09;-7.50;99.90
27162;DHT22;54464;50.558;9.704;2022-12-16T02:43:48;-7.50;99.90
27162;DHT22;54464;50.558;9.704;2022-12-16T02:46:16;-7.40;99.90
27162;DHT22;54464;50.558;9.704;2022-12-16T02:48:42;-7.40;99.90
27162;DHT22;54464;50.558;9.704;2022-12-16T02:51:08;-7.50;99.90
27162;DHT22;54464;50.558;9.704;2022-12-16T02:53:35;-7.50;99.90
27162;DHT22;54464;50.558;9.704;2022-12-16T02:58:51;-7.50;99.90
27162;DHT22;54464;50.558;9.704;2022-12-16T03:01:33;-7.60;99.90
27162;DHT22;54464;50.558;9.704;2022-12-16T03:04:38;-7.60;99.90
27162;DHT22;54464;50.558;9.704;2022-12-16T03:06:57;-7.60;99.90
27162;DHT22;54464;50.558;9.704;2022-12-16T03:09:28;-7.70;99.90
27162;DHT22;54464;50.558;9.704;2022-12-16T03:11:56;-7.70;99.90
27162;DHT22;54464;50.558;9.704;2022-12-16T03:14:27;-7.70;99.90
27162;DHT22;54464;50.558;9.704;2022-12-16T03:16:54;-7.60;99.90
27162;DHT22;54464;50.558;9.704;2022-12-16T03:19:21;-7.70;99.90
27162;DHT22;54464;50.558;9.704;2022-12-16T03:22:08;-7.60;99.90
27162;DHT22;54464;50.558;9.704;2022-12-16T03:24:36;-7.50;99.90
27162;DHT22;54464;50.558;9.704;2022-12-16T03:29:51;-7.40;99.90
27162;DHT22;54464;50.558;9.704;2022-12-16T03:37:39;-7.30;99.90
27162;DHT22;54464;50.558;9.704;2022-12-16T03:40:07;-7.40;99.90
27162;DHT22;54464;50.558;9.704;2022-12-16T03:42:35;-7.40;99.90
27162;DHT22;54464;50.558;9.704;2022-12-16T03:45:01;-7.40;99.90
27162;DHT22;54464;50.558;9.704;2022-12-16T03:47:28;-7.40;99.90
27162;DHT22;54464;50.558;9.704;2022-12-16T03:49:54;-7.40;99.90
27162;DHT22;54464;50.558;9.704;2022-12-16T03:52:20;-7.50;99.90
27162;DHT22;54464;50.558;9.704;2022-12-16T03:54:45;-7.50;99.90
27162;DHT22;54464;50.558;9.704;2022-12-16T03:57:11;-7.50;99.90
27162;DHT22;54464;50.558;9.704;2022-12-16T03:59:37;-7.50;99.90
27162;DHT22;54464;50.558;9.704;2022-12-16T04:02:03;-7.40;99.90
27162;DHT22;54464;50.558;9.704;2022-12-16T04:04:28;-7.30;99.90
27162;DHT22;54464;50.558;9.704;2022-12-16T04:06:54;-7.40;99.90
27162;DHT22;54464;50.558;9.704;2022-12-16T04:09:39;-7.30;99.90
27162;DHT22;54464;50.558;9.704;2022-12-16T04:12:05;-7.30;99.90
27162;DHT22;54464;50.558;9.704;2022-12-16T04:14:49;-7.20;99.90
27162;DHT22;54464;50.558;9.704;2022-12-16T04:17:33;-7.20;99.90
27162;DHT22;54464;50.558;9.704;2022-12-16T04:20:18;-7.30;99.90
27162;DHT22;54464;50.558;9.704;2022-12-16T04:23:04;-7.30;99.90
27162;DHT22;54464;50.558;9.704;2022-12-16T04:25:48;-7.40;99.90
27162;DHT22;54464;50.558;9.704;2022-12-16T04:28:13;-7.50;99.90
27162;DHT22;54464;50.558;9.704;2022-12-16T04:30:39;-7.60;99.90
27162;DHT22;54464;50.558;9.704;2022-12-16T04:33:07;-7.60;99.90
27162;DHT22;54464;50.558;9.704;2022-12-16T04:36:07;-7.60;99.90
27162;DHT22;54464;50.558;9.704;2022-12-16T04:38:51;-7.70;99.90
27162;DHT22;54464;50.558;9.704;2022-12-16T04:41:35;-7.70;99.90
27162;DHT22;54464;50.558;9.704;2022-12-16T04:44:19;-7.70;99.90
27162;DHT22;54464;50.558;9.704;2022-12-16T04:47:04;-7.80;99.90
27162;DHT22;54464;50.558;9.704;2022-12-16T04:49:48;-7.80;99.90
27162;DHT22;54464;50.558;9.704;2022-12-16T04:52:32;-7.90;99.90
27162;DHT22;54464;50.558;9.704;2022-12-16T04:55:16;-7.90;99.90
27162;DHT22;54464;50.558;9.704;2022-12-16T04:58:01;-7.90;99.90
27162;DHT22;54464;50.558;9.704;2022-12-16T05:00:46;-7.90;99.90
27162;DHT22;54464;50.558;9.704;2022-12-16T05:03:31;-7.90;99.90
27162;DHT22;54464;50.558;9.704;2022-12-16T05:06:16;-7.90;99.90
27162;DHT22;54464;50.558;9.704;2022-12-16T05:09:00;-7.80;99.90
27162;DHT22;54464;50.558;9.704;2022-12-16T05:11:50;-7.80;99.90
27162;DHT22;54464;50.558;9.704;2022-12-16T05:14:34;-7.90;99.90
27162;DHT22;54464;50.558;9.704;2022-12-16T05:17:19;-7.90;99.90
27162;DHT22;54464;50.558;9.704;2022-12-16T05:20:04;-7.90;99.90
27162;DHT22;54464;50.558;9.704;2022-12-16T05:22:48;-7.90;99.90
27162;DHT22;54464;50.558;9.704;2022-12-16T05:25:32;-7.90;99.90
27162;DHT22;54464;50.558;9.704;2022-12-16T05:28:17;-7.80;99.90
27162;DHT22;54464;50.558;9.704;2022-12-16T05:31:01;-7.70;99.90
27162;DHT22;54464;50.558;9.704;2022-12-16T05:33:45;-7.60;99.90
27162;DHT22;54464;50.558;9.704;2022-12-16T05:36:29;-7.50;99.90
27162;DHT22;54464;50.558;9.704;2022-12-16T05:39:13;-7.50;99.90
27162;DHT22;54464;50.558;9.704;2022-12-16T05:41:57;-7.50;99.90
27162;DHT22;54464;50.558;9.704;2022-12-16T05:44:44;-7.50;99.90
27162;DHT22;54464;50.558;9.704;2022-12-16T05:47:28;-7.50;99.90
27162;DHT22;54464;50.558;9.704;2022-12-16T05:50:12;-7.50;99.90
27162;DHT22;54464;50.558;9.704;2022-12-16T05:52:57;-7.60;99.90
27162;DHT22;54464;50.558;9.704;2022-12-16T05:55:41;-7.60;99.90
27162;DHT22;54464;50.558;9.704;2022-12-16T05:58:26;-7.50;99.90
27162;DHT22;54464;50.558;9.704;2022-12-16T06:01:11;-7.40;99.90
27162;DHT22;54464;50.558;9.704;2022-12-16T06:03:55;-7.40;99.90
27162;DHT22;54464;50.558;9.704;2022-12-16T06:06:40;-7.40;99.90
27162;DHT22;54464;50.558;9.704;2022-12-16T06:09:24;-7.40;99.90
27162;DHT22;54464;50.558;9.704;2022-12-16T06:12:09;-7.40;99.90
27162;DHT22;54464;50.558;9.704;2022-12-16T06:14:53;-7.40;99.90
27162;DHT22;54464;50.558;9.704;2022-12-16T06:17:49;-7.30;99.90
27162;DHT22;54464;50.558;9.704;2022-12-16T06:20:35;-7.30;99.90
27162;DHT22;54464;50.558;9.704;2022-12-16T06:23:19;-7.30;99.90
27162;DHT22;54464;50.558;9.704;2022-12-16T06:26:04;-7.30;99.90
27162;DHT22;54464;50.558;9.704;2022-12-16T06:28:48;-7.40;99.90
27162;DHT22;54464;50.558;9.704;2022-12-16T06:31:45;-7.40;99.90
27162;DHT22;54464;50.558;9.704;2022-12-16T06:34:30;-7.40;99.90
27162;DHT22;54464;50.558;9.704;2022-12-16T06:37:14;-7.40;99.90
27162;DHT22;54464;50.558;9.704;2022-12-16T06:39:58;-7.40;99.90
27162;DHT22;54464;50.558;9.704;2022-12-16T06:42:43;-7.40;99.90
27162;DHT22;54464;50.558;9.704;2022-12-16T06:45:27;-7.40;99.90
27162;DHT22;54464;50.558;9.704;2022-12-16T06:48:12;-7.40;99.90
27162;DHT22;54464;50.558;9.704;2022-12-16T06:50:56;-7.50;99.90
27162;DHT22;54464;50.558;9.704;2022-12-16T06:53:40;-7.50;99.90
27162;DHT22;54464;50.558;9.704;2022-12-16T06:56:24;-7.60;99.90
27162;DHT22;54464;50.558;9.704;2022-12-16T06:59:08;-7.60;99.90
27162;DHT22;54464;50.558;9.704;2022-12-16T07:01:52;-7.60;99.90
27162;DHT22;54464;50.558;9.704;2022-12-16T07:04:36;-7.50;99.90
27162;DHT22;54464;50.558;9.704;2022-12-16T07:07:20;-7.50;99.90
27162;DHT22;54464;50.558;9.704;2022-12-16T07:10:05;-7.50;99.90
27162;DHT22;54464;50.558;9.704;2022-12-16T07:12:49;-7.50;99.90
27162;DHT22;54464;50.558;9.704;2022-12-16T07:15:33;-7.50;99.90
27162;DHT22;54464;50.558;9.704;2022-12-16T07:18:17;-7.50;99.90
27162;DHT22;54464;50.558;9.704;2022-12-16T07:21:01;-7.40;99.90
27162;DHT22;54464;50.558;9.704;2022-12-16T07:23:45;-7.40;99.90
27162;DHT22;54464;50.558;9.704;2022-12-16T07:26:29;-7.30;99.90
27162;DHT22;54464;50.558;9.704;2022-12-16T07:29:13;-7.30;99.90
27162;DHT22;54464;50.558;9.704;2022-12-16T07:31:57;-7.20;99.90
27162;DHT22;54464;50.558;9.704;2022-12-16T07:34:41;-7.10;99.90
27162;DHT22;54464;50.558;9.704;2022-12-16T07:37:25;-7.10;99.90
27162;DHT22;54464;50.558;9.704;2022-12-16T07:40:10;-7.00;99.90
27162;DHT22;54464;50.558;9.704;2022-12-16T07:42:54;-6.90;99.90
27162;DHT22;54464;50.558;9.704;2022-12-16T07:45:38;-6.80;99.90
27162;DHT22;54464;50.558;9.704;2022-12-16T07:48:22;-6.80;99.90
27162;DHT22;54464;50.558;9.704;2022-12-16T07:51:06;-6.70;99.90
27162;DHT22;54464;50.558;9.704;2022-12-16T07:53:50;-6.60;99.90
27162;DHT22;54464;50.558;9.704;2022-12-16T07:56:35;-6.50;99.90
27162;DHT22;54464;50.558;9.704;2022-12-16T07:59:19;-6.50;99.90
27162;DHT22;54464;50.558;9.704;2022-12-16T08:02:03;-6.40;99.90
27162;DHT22;54464;50.558;9.704;2022-12-16T08:04:47;-6.40;99.90
27162;DHT22;54464;50.558;9.704;2022-12-16T08:07:31;-6.40;99.90
27162;DHT22;54464;50.558;9.704;2022-12-16T08:10:15;-6.40;99.90
27162;DHT22;54464;50.558;9.704;2022-12-16T08:13:04;-6.40;99.90
27162;DHT22;54464;50.558;9.704;2022-12-16T08:15:48;-6.40;99.90
27162;DHT22;54464;50.558;9.704;2022-12-16T08:18:33;-6.50;99.90
27162;DHT22;54464;50.558;9.704;2022-12-16T08:21:17;-6.50;99.90
27162;DHT22;54464;50.558;9.704;2022-12-16T08:24:01;-6.50;99.90
27162;DHT22;54464;50.558;9.704;2022-12-16T08:26:45;-6.60;99.90
27162;DHT22;54464;50.558;9.704;2022-12-16T08:29:29;-6.60;99.90
27162;DHT22;54464;50.558;9.704;2022-12-16T08:32:14;-6.60;99.90
27162;DHT22;54464;50.558;9.704;2022-12-16T08:34:59;-6.60;99.90
27162;DHT22;54464;50.558;9.704;2022-12-16T08:37:43;-6.60;99.90
27162;DHT22;54464;50.558;9.704;2022-12-16T08:40:27;-6.60;99.90
27162;DHT22;54464;50.558;9.704;2022-12-16T08:43:19;-6.60;99.90
27162;DHT22;54464;50.558;9.704;2022-12-16T08:46:03;-6.50;99.90
27162;DHT22;54464;50.558;9.704;2022-12-16T08:48:47;-6.40;99.90
27162;DHT22;54464;50.558;9.704;2022-12-16T08:51:36;-6.30;99.90
27162;DHT22;54464;50.558;9.704;2022-12-16T08:54:20;-6.20;99.90
27162;DHT22;54464;50.558;9.704;2022-12-16T08:57:04;-6.00;99.90
27162;DHT22;54464;50.558;9.704;2022-12-16T08:59:48;-5.90;99.90
27162;DHT22;54464;50.558;9.704;2022-12-16T09:02:33;-5.70;99.90
27162;DHT22;54464;50.558;9.704;2022-12-16T09:05:17;-5.60;99.90
27162;DHT22;54464;50.558;9.704;2022-12-16T09:08:02;-5.50;99.90
27162;DHT22;54464;50.558;9.704;2022-12-16T09:10:47;-5.40;99.90
27162;DHT22;54464;50.558;9.704;2022-12-16T09:13:31;-5.40;99.90
27162;DHT22;54464;50.558;9.704;2022-12-16T09:16:15;-5.30;99.90
27162;DHT22;54464;50.558;9.704;2022-12-16T09:18:59;-5.20;99.90
27162;DHT22;54464;50.558;9.704;2022-12-16T09:21:58;-5.10;99.90
27162;DHT22;54464;50.558;9.704;2022-12-16T09:24:42;-5.00;99.90
27162;DHT22;54464;50.558;9.704;2022-12-16T09:27:26;-4.90;99.90
27162;DHT22;54464;50.558;9.704;2022-12-16T09:30:10;-4.80;99.90
27162;DHT22;54464;50.558;9.704;2022-12-16T09:32:54;-4.60;99.90
27162;DHT22;54464;50.558;9.704;2022-12-16T09:35:38;-4.60;99.90
27162;DHT22;54464;50.558;9.704;2022-12-16T09:38:22;-4.50;99.90
27162;DHT22;54464;50.558;9.704;2022-12-16T09:41:43;-4.40;99.90
27162;DHT22;54464;50.558;9.704;2022-12-16T09:45:34;-4.20;99.90
27162;DHT22;54464;50.558;9.704;2022-12-16T09:50:44;-3.90;99.90
27162;DHT22;54464;50.558;9.704;2022-12-16T09:53:33;-3.90;99.90
27162;DHT22;54464;50.558;9.704;2022-12-16T09:56:30;-3.90;99.90
27162;DHT22;54464;50.558;9.704;2022-12-16T09:59:21;-3.80;99.90
27162;DHT22;54464;50.558;9.704;2022-12-16T10:02:11;-3.80;99.90
27162;DHT22;54464;50.558;9.704;2022-12-16T10:04:58;-3.70;99.90
27162;DHT22;54464;50.558;9.704;2022-12-16T10:11:07;-3.60;99.90
27162;DHT22;54464;50.558;9.704;2022-12-16T10:14:07;-3.60;99.90
27162;DHT22;54464;50.558;9.704;2022-12-16T10:17:09;-3.50;99.90
27162;DHT22;54464;50.558;9.704;2022-12-16T10:26:13;-3.20;99.90
27162;DHT22;54464;50.558;9.704;2022-12-16T10:29:14;-3.10;99.90
27162;DHT22;54464;50.558;9.704;2022-12-16T10:35:26;-2.90;99.90
27162;DHT22;54464;50.558;9.704;2022-12-16T10:41:08;-2.70;99.90
27162;DHT22;54464;50.558;9.704;2022-12-16T10:43:55;-2.50;99.90
27162;DHT22;54464;50.558;9.704;2022-12-16T10:46:40;-2.50;99.90
27162;DHT22;54464;50.558;9.704;2022-12-16T10:49:24;-2.50;99.90
27162;DHT22;54464;50.558;9.704;2022-12-16T10:52:12;-2.40;99.90
27162;DHT22;54464;50.558;9.704;2022-12-16T10:55:25;-2.40;99.90
27162;DHT22;54464;50.558;9.704;2022-12-16T10:58:42;-2.30;99.90
27162;DHT22;54464;50.558;9.704;2022-12-16T11:01:28;-2.20;99.90
27162;DHT22;54464;50.558;9.704;2022-12-16T11:07:33;-2.20;99.90
27162;DHT22;54464;50.558;9.704;2022-12-16T11:13:22;-2.10;99.90
27162;DHT22;54464;50.558;9.704;2022-12-16T11:18:55;-2.00;99.90
27162;DHT22;54464;50.558;9.704;2022-12-16T11:21:39;-2.00;99.90
27162;DHT22;54464;50.558;9.704;2022-12-16T11:24:23;-1.90;99.90
27162;DHT22;54464;50.558;9.704;2022-12-16T11:30:00;-1.70;99.90
27162;DHT22;54464;50.558;9.704;2022-12-16T11:32:58;-1.50;99.90
27162;DHT22;54464;50.558;9.704;2022-12-16T11:35:47;-1.40;99.90
27162;DHT22;54464;50.558;9.704;2022-12-16T11:38:43;-1.40;99.90
27162;DHT22;54464;50.558;9.704;2022-12-16T11:41:38;-1.40;99.90
27162;DHT22;54464;50.558;9.704;2022-12-16T11:47:48;-1.30;99.90
27162;DHT22;54464;50.558;9.704;2022-12-16T11:50:35;-1.10;99.90
27162;DHT22;54464;50.558;9.704;2022-12-16T11:53:25;-1.10;99.90
27162;DHT22;54464;50.558;9.704;2022-12-16T11:56:23;-1.10;99.90
27162;DHT22;54464;50.558;9.704;2022-12-16T11:59:39;-1.00;99.90
27162;DHT22;54464;50.558;9.704;2022-12-16T12:05:55;-0.90;99.90
27162;DHT22;54464;50.558;9.704;2022-12-16T12:09:06;-0.90;99.90
27162;DHT22;54464;50.558;9.704;2022-12-16T12:12:05;-0.90;99.90
27162;DHT22;54464;50.558;9.704;2022-12-16T12:20:46;-0.80;99.90
27162;DHT22;54464;50.558;9.704;2022-12-16T12:24:00;-0.90;99.90
27162;DHT22;54464;50.558;9.704;2022-12-16T12:30:08;-0.70;99.90
27162;DHT22;54464;50.558;9.704;2022-12-16T12:38:51;-0.70;99.90
27162;DHT22;54464;50.558;9.704;2022-12-16T12:44:57;-0.70;99.90
27162;DHT22;54464;50.558;9.704;2022-12-16T12:48:03;-0.80;99.90
27162;DHT22;54464;50.558;9.704;2022-12-16T12:51:05;-0.80;99.90
27162;DHT22;54464;50.558;9.704;2022-12-16T12:57:12;-1.10;99.90
27162;DHT22;54464;50.558;9.704;2022-12-16T13:00:00;-1.30;99.90
27162;DHT22;54464;50.558;9.704;2022-12-16T13:03:00;-1.50;99.90
27162;DHT22;54464;50.558;9.704;2022-12-16T13:05:46;-1.70;99.90
27162;DHT22;54464;50.558;9.704;2022-12-16T13:11:17;-1.70;99.90
27162;DHT22;54464;50.558;9.704;2022-12-16T13:14:01;-1.70;99.90
27162;DHT22;54464;50.558;9.704;2022-12-16T13:16:55;-1.80;99.90
27162;DHT22;54464;50.558;9.704;2022-12-16T13:19:41;-1.70;99.90
27162;DHT22;54464;50.558;9.704;2022-12-16T13:22:33;-1.80;99.90
27162;DHT22;54464;50.558;9.704;2022-12-16T13:28:22;-1.90;99.90
27162;DHT22;54464;50.558;9.704;2022-12-16T13:31:07;-1.80;99.90
27162;DHT22;54464;50.558;9.704;2022-12-16T13:33:53;-1.70;99.90
27162;DHT22;54464;50.558;9.704;2022-12-16T13:36:38;-1.60;99.90
27162;DHT22;54464;50.558;9.704;2022-12-16T13:39:25;-1.50;99.90
27162;DHT22;54464;50.558;9.704;2022-12-16T13:50:43;-1.60;99.90
27162;DHT22;54464;50.558;9.704;2022-12-16T13:53:30;-1.40;99.90
27162;DHT22;54464;50.558;9.704;2022-12-16T13:56:19;-1.20;99.90
27162;DHT22;54464;50.558;9.704;2022-12-16T13:59:17;-1.00;99.90
27162;DHT22;54464;50.558;9.704;2022-12-16T14:02:37;-0.90;99.90
27162;DHT22;54464;50.558;9.704;2022-12-16T14:05:28;-0.70;99.90
27162;DHT22;54464;50.558;9.704;2022-12-16T14:08:16;-0.50;99.90
27162;DHT22;54464;50.558;9.704;2022-12-16T14:11:03;-0.40;99.90
27162;DHT22;54464;50.558;9.704;2022-12-16T14:13:59;-0.50;99.90
27162;DHT22;54464;50.558;9.704;2022-12-16T14:16:52;-0.50;99.90
27162;DHT22;54464;50.558;9.704;2022-12-16T14:23:17;-0.90;99.90
27162;DHT22;54464;50.558;9.704;2022-12-16T14:26:04;-1.00;99.90
27162;DHT22;54464;50.558;9.704;2022-12-16T14:28:48;-1.00;99.90
27162;DHT22;54464;50.558;9.704;2022-12-16T14:31:38;-1.10;99.90
27162;DHT22;54464;50.558;9.704;2022-12-16T14:34:25;-1.30;99.90
27162;DHT22;54464;50.558;9.704;2022-12-16T14:37:22;-1.50;99.90
27162;DHT22;54464;50.558;9.704;2022-12-16T14:43:18;-1.80;99.90
27162;DHT22;54464;50.558;9.704;2022-12-16T14:46:03;-1.90;99.90
27162;DHT22;54464;50.558;9.704;2022-12-16T14:48:48;-2.00;99.90
27162;DHT22;54464;50.558;9.704;2022-12-16T14:51:43;-2.00;99.90
27162;DHT22;54464;50.558;9.704;2022-12-16T14:57:23;-2.00;99.90
27162;DHT22;54464;50.558;9.704;2022-12-16T15:02:54;-2.00;99.90
27162;DHT22;54464;50.558;9.704;2022-12-16T15:05:40;-2.10;99.90
27162;DHT22;54464;50.558;9.704;2022-12-16T15:08:26;-2.10;99.90
27162;DHT22;54464;50.558;9.704;2022-12-16T15:11:14;-2.10;99.90
27162;DHT22;54464;50.558;9.704;2022-12-16T15:14:02;-2.20;99.90
27162;DHT22;54464;50.558;9.704;2022-12-16T15:16:48;-2.20;99.90
27162;DHT22;54464;50.558;9.704;2022-12-16T15:19:40;-2.30;99.90
27162;DHT22;54464;50.558;9.704;2022-12-16T15:22:26;-2.40;99.90
27162;DHT22;54464;50.558;9.704;2022-12-16T15:25:22;-2.50;99.90
27162;DHT22;54464;50.558;9.704;2022-12-16T15:28:45;-2.50;99.90
27162;DHT22;54464;50.558;9.704;2022-12-16T15:31:35;-2.60;99.90
27162;DHT22;54464;50.558;9.704;2022-12-16T15:40:01;-2.80;99.90
27162;DHT22;54464;50.558;9.704;2022-12-16T15:42:50;-2.80;99.90
27162;DHT22;54464;50.558;9.704;2022-12-16T15:45:35;-2.90;99.90
27162;DHT22;54464;50.558;9.704;2022-12-16T15:48:26;-2.90;99.90
27162;DHT22;54464;50.558;9.704;2022-12-16T15:54:03;-3.00;99.90
27162;DHT22;54464;50.558;9.704;2022-12-16T15:56:48;-3.10;99.90
27162;DHT22;54464;50.558;9.704;2022-12-16T15:59:35;-3.10;99.90
27162;DHT22;54464;50.558;9.704;2022-12-16T16:02:28;-3.20;99.90
27162;DHT22;54464;50.558;9.704;2022-12-16T16:05:19;-3.20;99.90
27162;DHT22;54464;50.558;9.704;2022-12-16T16:08:04;-3.20;99.90
27162;DHT22;54464;50.558;9.704;2022-12-16T16:10:48;-3.30;99.90
27162;DHT22;54464;50.558;9.704;2022-12-16T16:13:32;-3.30;99.90
27162;DHT22;54464;50.558;9.704;2022-12-16T16:16:17;-3.30;99.90
27162;DHT22;54464;50.558;9.704;2022-12-16T16:19:01;-3.30;99.90
27162;DHT22;54464;50.558;9.704;2022-12-16T16:21:45;-3.40;99.90
27162;DHT22;54464;50.558;9.704;2022-12-16T16:24:29;-3.40;99.90
27162;DHT22;54464;50.558;9.704;2022-12-16T16:27:14;-3.40;99.90
27162;DHT22;54464;50.558;9.704;2022-12-16T16:29:59;-3.50;99.90
27162;DHT22;54464;50.558;9.704;2022-12-16T16:32:44;-3.50;99.90
27162;DHT22;54464;50.558;9.704;2022-12-16T16:35:30;-3.50;99.90
27162;DHT22;54464;50.558;9.704;2022-12-16T16:38:15;-3.50;99.90
27162;DHT22;54464;50.558;9.704;2022-12-16T16:41:00;-3.50;99.90
27162;DHT22;54464;50.558;9.704;2022-12-16T16:43:44;-3.50;99.90
27162;DHT22;54464;50.558;9.704;2022-12-16T16:46:30;-3.60;99.90
27162;DHT22;54464;50.558;9.704;2022-12-16T16:49:37;-3.60;99.90
27162;DHT22;54464;50.558;9.704;2022-12-16T16:52:26;-3.60;99.90
27162;DHT22;54464;50.558;9.704;2022-12-16T16:55:19;-3.60;99.90
27162;DHT22;54464;50.558;9.704;2022-12-16T16:58:13;-3.60;99.90
27162;DHT22;54464;50.558;9.704;2022-12-16T17:00:57;-3.70;99.90
27162;DHT22;54464;50.558;9.704;2022-12-16T17:03:41;-3.70;99.90
27162;DHT22;54464;50.558;9.704;2022-12-16T17:06:25;-3.70;99.90
27162;DHT22;54464;50.558;9.704;2022-12-16T17:09:09;-3.70;99.90
27162;DHT22;54464;50.558;9.704;2022-12-16T17:11:54;-3.80;99.90
27162;DHT22;54464;50.558;9.704;2022-12-16T17:14:38;-3.80;99.90
27162;DHT22;54464;50.558;9.704;2022-12-16T17:17:22;-3.80;99.90
27162;DHT22;54464;50.558;9.704;2022-12-16T17:20:13;-3.90;99.90
27162;DHT22;54464;50.558;9.704;2022-12-16T17:22:57;-3.80;99.90
27162;DHT22;54464;50.558;9.704;2022-12-16T17:25:42;-3.90;99.90
27162;DHT22;54464;50.558;9.704;2022-12-16T17:28:26;-3.90;99.90
27162;DHT22;54464;50.558;9.704;2022-12-16T17:31:10;-3.90;99.90
27162;DHT22;54464;50.558;9.704;2022-12-16T17:33:54;-3.90;99.90
27162;DHT22;54464;50.558;9.704;2022-12-16T17:36:38;-4.00;99.90
27162;DHT22;54464;50.558;9.704;2022-12-16T17:39:22;-4.00;99.90
27162;DHT22;54464;50.558;9.704;2022-12-16T17:42:06;-4.00;99.90
27162;DHT22;54464;50.558;9.704;2022-12-16T17:44:50;-4.00;99.90
27162;DHT22;54464;50.558;9.704;2022-12-16T17:47:34;-4.10;99.90
27162;DHT22;54464;50.558;9.704;2022-12-16T17:50:19;-4.10;99.90
27162;DHT22;54464;50.558;9.704;2022-12-16T17:53:03;-4.10;99.90
27162;DHT22;54464;50.558;9.704;2022-12-16T17:55:47;-4.10;99.90
27162;DHT22;54464;50.558;9.704;2022-12-16T17:58:33;-4.20;99.90
27162;DHT22;54464;50.558;9.704;2022-12-16T18:01:18;-4.20;99.90
27162;DHT22;54464;50.558;9.704;2022-12-16T18:04:03;-4.20;99.90
27162;DHT22;54464;50.558;9.704;2022-12-16T18:06:47;-4.30;99.90
27162;DHT22;54464;50.558;9.704;2022-12-16T18:09:31;-4.30;99.90
27162;DHT22;54464;50.558;9.704;2022-12-16T18:12:15;-4.40;99.90
27162;DHT22;54464;50.558;9.704;2022-12-16T18:14:59;-4.40;99.90
27162;DHT22;54464;50.558;9.704;2022-12-16T18:17:46;-4.40;99.90
27162;DHT22;54464;50.558;9.704;2022-12-16T18:20:30;-4.40;99.90
27162;DHT22;54464;50.558;9.704;2022-12-16T18:23:14;-4.40;99.90
27162;DHT22;54464;50.558;9.704;2022-12-16T18:26:00;-4.40;99.90
27162;DHT22;54464;50.558;9.704;2022-12-16T18:28:45;-4.40;99.90
27162;DHT22;54464;50.558;9.704;2022-12-16T18:31:29;-4.50;99.90
27162;DHT22;54464;50.558;9.704;2022-12-16T18:34:13;-4.50;99.90
27162;DHT22;54464;50.558;9.704;2022-12-16T18:36:58;-4.50;99.90
27162;DHT22;54464;50.558;9.704;2022-12-16T18:39:42;-4.50;99.90
27162;DHT22;54464;50.558;9.704;2022-12-16T18:42:26;-4.40;99.90
27162;DHT22;54464;50.558;9.704;2022-12-16T18:45:10;-4.40;99.90
27162;DHT22;54464;50.558;9.704;2022-12-16T18:47:54;-4.40;99.90
27162;DHT22;54464;50.558;9.704;2022-12-16T18:50:38;-4.40;99.90
27162;DHT22;54464;50.558;9.704;2022-12-16T18:53:22;-4.30;99.90
27162;DHT22;54464;50.558;9.704;2022-12-16T18:56:26;-4.40;99.90
27162;DHT22;54464;50.558;9.704;2022-12-16T18:59:10;-4.40;99.90
27162;DHT22;54464;50.558;9.704;2022-12-16T19:01:55;-4.30;99.90
27162;DHT22;54464;50.558;9.704;2022-12-16T19:04:40;-4.40;99.90
27162;DHT22;54464;50.558;9.704;2022-12-16T19:07:24;-4.40;99.90
27162;DHT22;54464;50.558;9.704;2022-12-16T19:10:08;-4.40;99.90
27162;DHT22;54464;50.558;9.704;2022-12-16T19:12:56;-4.40;99.90
27162;DHT22;54464;50.558;9.704;2022-12-16T19:15:40;-4.30;99.90
27162;DHT22;54464;50.558;9.704;2022-12-16T19:18:24;-4.40;99.90
27162;DHT22;54464;50.558;9.704;2022-12-16T19:21:09;-4.40;99.90
27162;DHT22;54464;50.558;9.704;2022-12-16T19:23:53;-4.50;99.90
27162;DHT22;54464;50.558;9.704;2022-12-16T19:26:38;-4.50;99.90